Te Rauamoa, New Zealand
Current Conditions -  °F | °C
As of 9:30 AM on Monday 24 Nov 2014 (Local Time) from NZAA Reporting Station
Overcast Overcast  
Wind Chill: 61°   Ceiling: 1100
Heat Index: 61°   Visibility: 6mi
Dew Point: 57°   Wind: 2mph
Humidity: 88%   Direction: 90°E
Pressure: 30.09"   Gusts: NA
Location:  38.06°S, 174.82°E
Report Text: NZAA 232130Z AUTO 09002KT 9999 OVC011/// 16/14 Q1019 BECMGBKN025 TEMPO BKN006
Loading
Personal Weather Stations






























Interactive Weather Map New forecast layout! Learn more

10-Day Weather Forecast

Advertisements
Track Severe Weather on mobile